Time;durP1;ratioP1;P1;durP2;ratioP2;P2;SDS_P1;SDS_P2;PMS_P1;PMS_P2;Temp;Humidity;BMP_temperature;BMP_pressure;BME280_temperature;BME280_humidity;BME280_pressure;Samples;Min_cycle;Max_cycle;Signal;HPM_P1;HPM_P2
2023/04/21 00:02:14;;;;;;;0.20;0.20;;;;;;;7.87;32.63;99834.78;5147402;27;20137;-68
2023/04/21 00:04:41;;;;;;;0.15;0.15;;;;;;;7.69;32.39;99805.19;5149886;27;20472;-68
2023/04/21 00:07:07;;;;;;;0.15;0.15;;;;;;;7.87;32.36;99831.25;5151251;27;20050;-68
2023/04/21 00:09:33;;;;;;;0.10;0.10;;;;;;;7.86;32.36;99829.63;5150270;27;20038;-70
2023/04/21 00:12:00;;;;;;;0.10;0.10;;;;;;;7.83;32.39;99824.69;5148225;27;20428;-68
2023/04/21 00:14:26;;;;;;;0.43;0.20;;;;;;;7.83;32.41;99827.41;5145696;27;20062;-68
2023/04/21 00:16:54;;;;;;;0.10;0.10;;;;;;;7.83;32.26;99825.50;5150280;27;20051;-67
2023/04/21 00:19:22;;;;;;;0.10;0.10;;;;;;;7.82;32.42;99826.56;5147751;27;20525;-68
2023/04/21 00:21:48;;;;;;;0.10;0.10;;;;;;;7.77;32.33;99815.63;5147494;27;20061;-67
2023/04/21 00:24:17;;;;;;;0.20;0.20;;;;;;;7.79;32.42;99827.91;5131179;27;20129;-68
2023/04/21 00:26:43;;;;;;;0.10;0.10;;;;;;;7.78;32.18;99822.72;5148734;27;20594;-67
2023/04/21 00:29:09;;;;;;;0.15;0.15;;;;;;;7.73;32.20;99823.47;5149624;27;20047;-68
2023/04/21 00:31:35;;;;;;;0.10;0.10;;;;;;;7.66;32.32;99831.84;5145216;27;20111;-68
2023/04/21 00:34:06;;;;;;;0.10;0.10;;;;;;;7.63;32.44;99829.63;5115520;27;20046;-68
2023/04/21 00:36:32;;;;;;;0.10;0.10;;;;;;;7.63;32.51;99829.63;5128167;27;20058;-68
2023/04/21 00:38:59;;;;;;;0.32;0.20;;;;;;;7.60;32.78;99823.88;5149574;27;20056;-69
2023/04/21 00:41:26;;;;;;;0.10;0.10;;;;;;;7.66;32.69;99817.44;5147361;27;20556;-69
2023/04/21 00:44:00;;;;;;;0.10;0.10;;;;;;;7.63;33.00;99817.91;5148272;27;20078;-68
2023/04/21 00:46:26;;;;;;;0.10;0.10;;;;;;;7.57;32.97;99810.78;5129448;27;20506;-69
2023/04/21 00:48:53;;;;;;;0.17;0.17;;;;;;;7.55;33.13;99815.66;5147088;27;20074;-69
2023/04/21 00:51:21;;;;;;;0.10;0.10;;;;;;;7.50;33.10;99816.41;5148853;27;20057;-69
2023/04/21 00:53:49;;;;;;;0.10;0.10;;;;;;;7.42;33.53;99808.72;5147111;27;20459;-70
2023/04/21 00:56:16;;;;;;;;;;;;;;;7.29;33.62;99804.47;5130529;27;20189;-69
2023/04/21 00:58:44;;;;;;;0.20;0.20;;;;;;;7.23;33.97;99798.13;5146391;27;20025;-70
2023/04/21 01:01:12;;;;;;;0.30;0.30;;;;;;;7.16;34.06;99802.94;5149842;27;20579;-70
2023/04/21 01:03:38;;;;;;;0.85;0.30;;;;;;;7.13;34.16;99804.25;5130617;27;20043;-70
2023/04/21 01:06:05;;;;;;;0.20;0.20;;;;;;;7.11;34.38;99800.16;5147734;27;20122;-68
2023/04/21 01:08:34;;;;;;;0.20;0.20;;;;;;;7.09;34.36;99797.69;5149875;27;20043;-69
2023/04/21 01:11:09;;;;;;;0.57;0.28;;;;;;;7.09;34.60;99800.41;5146967;27;20046;-69
2023/04/21 01:13:36;;;;;;;0.28;0.28;;;;;;;7.10;34.53;99799.34;5148401;27;20658;-68
2023/04/21 01:16:02;;;;;;;0.10;0.10;;;;;;;7.07;34.35;99800.66;5150035;27;20073;-68
2023/04/21 01:18:29;;;;;;;0.30;0.30;;;;;;;7.04;34.46;99800.34;5151232;27;20103;-68
2023/04/21 01:20:55;;;;;;;0.20;0.20;;;;;;;7.00;34.53;99799.19;5147618;27;20047;-68
2023/04/21 01:23:23;;;;;;;0.10;0.10;;;;;;;6.94;34.67;99796.41;5149588;27;20088;-69
2023/04/21 01:25:50;;;;;;;0.20;0.20;;;;;;;6.88;34.97;99794.69;5149326;27;20057;-68
2023/04/21 01:28:20;;;;;;;0.28;0.28;;;;;;;6.85;35.05;99795.19;5148065;27;20087;-71
2023/04/21 01:30:47;;;;;;;0.20;0.20;;;;;;;6.84;34.96;99796.25;5148868;27;20050;-68
2023/04/21 01:33:13;;;;;;;0.20;0.20;;;;;;;6.80;35.42;99795.94;5147634;27;20143;-68
2023/04/21 01:35:39;;;;;;;0.20;0.20;;;;;;;6.79;35.28;99788.03;5145062;27;20573;-68
2023/04/21 01:38:06;;;;;;;0.20;0.20;;;;;;;6.81;35.19;99791.31;5129042;27;20073;-69
2023/04/21 01:40:33;;;;;;;0.25;0.25;;;;;;;6.80;34.95;99786.97;5145846;27;20054;-69
2023/04/21 01:43:02;;;;;;;0.30;0.30;;;;;;;6.75;35.33;99784.19;5148938;27;20051;-69
2023/04/21 01:45:29;;;;;;;0.22;0.20;;;;;;;6.70;35.17;99781.38;5114097;27;20072;-69
2023/04/21 01:47:55;;;;;;;0.20;0.20;;;;;;;6.72;35.46;99787.41;5147776;27;20039;-69
2023/04/21 01:50:22;;;;;;;0.55;0.30;;;;;;;6.77;35.22;99792.91;5132460;27;20509;-69
2023/04/21 01:52:48;;;;;;;0.28;0.28;;;;;;;6.78;35.06;99789.13;5147896;27;20078;-69
2023/04/21 01:55:15;;;;;;;0.95;0.40;;;;;;;6.74;35.32;99788.78;5127198;27;20057;-69
2023/04/21 01:57:42;;;;;;;1.00;0.35;;;;;;;6.69;35.42;99779.72;5145985;27;20145;-69
2023/04/21 02:00:09;;;;;;;;;;;;;;;6.64;35.61;99780.50;5150325;27;20055;-69
2023/04/21 02:02:41;;;;;;;0.30;0.30;;;;;;;6.57;35.54;99779.84;5148732;27;19929;-69
2023/04/21 02:05:07;;;;;;;0.50;0.40;;;;;;;6.55;35.78;99782.78;5129461;27;20047;-69
2023/04/21 02:07:34;;;;;;;0.80;0.38;;;;;;;6.56;35.81;99786.34;5129541;27;20050;-68
2023/04/21 02:10:00;;;;;;;0.35;0.30;;;;;;;6.58;35.47;99787.75;5128572;27;20461;-69
2023/04/21 02:12:26;;;;;;;0.30;0.30;;;;;;;6.55;35.63;99792.84;5147665;27;20061;-69
2023/04/21 02:14:54;;;;;;;0.20;0.20;;;;;;;6.48;35.58;99788.41;5146574;27;20055;-68
2023/04/21 02:17:21;;;;;;;0.25;0.25;;;;;;;6.32;35.83;99773.75;5127306;27;20045;-68
2023/04/21 02:19:47;;;;;;;0.20;0.20;;;;;;;6.47;35.95;99788.66;5148485;27;20051;-68
2023/04/21 02:22:14;;;;;;;0.20;0.20;;;;;;;6.52;35.79;99792.28;5149577;27;20043;-68
2023/04/21 02:24:40;;;;;;;0.20;0.20;;;;;;;6.48;35.88;99777.56;5146265;27;20082;-68
2023/04/21 02:27:07;;;;;;;0.52;0.30;;;;;;;6.55;35.67;99782.78;5148480;27;20042;-68
2023/04/21 02:29:33;;;;;;;0.20;0.20;;;;;;;6.63;35.49;99787.81;5148262;27;20511;-68
2023/04/21 02:32:00;;;;;;;0.20;0.20;;;;;;;6.72;35.60;99787.41;5147274;27;20046;-68
2023/04/21 02:34:27;;;;;;;0.40;0.40;;;;;;;6.71;35.61;99785.72;5147223;27;20505;-69
2023/04/21 02:36:53;;;;;;;0.30;0.20;;;;;;;6.66;35.65;99789.22;5145238;27;20043;-68
2023/04/21 02:39:19;;;;;;;0.37;0.30;;;;;;;6.66;35.73;99792.75;5146578;27;20073;-68
2023/04/21 02:41:45;;;;;;;0.30;0.20;;;;;;;6.62;35.61;99786.16;5149649;27;20379;-69
2023/04/21 02:44:12;;;;;;;0.20;0.20;;;;;;;6.60;35.62;99785.59;5146240;27;20053;-68
2023/04/21 02:46:39;;;;;;;0.13;0.13;;;;;;;6.63;35.69;99790.53;5146061;27;20054;-68
2023/04/21 02:49:07;;;;;;;0.32;0.20;;;;;;;6.62;35.58;99785.34;5138518;27;20043;-69
2023/04/21 02:51:33;;;;;;;0.20;0.20;;;;;;;6.71;35.66;99783.00;5134547;27;20083;-68
2023/04/21 02:53:59;;;;;;;0.32;0.20;;;;;;;6.78;35.33;99784.47;5124097;27;20050;-69
2023/04/21 02:56:25;;;;;;;0.20;0.20;;;;;;;6.89;35.28;99784.63;5126993;27;20544;-68
2023/04/21 02:58:51;;;;;;;0.50;0.20;;;;;;;6.91;34.87;99788.75;5124729;27;20520;-69
2023/04/21 03:01:18;;;;;;;0.20;0.20;;;;;;;6.94;34.96;99793.69;5104408;27;20533;-68
2023/04/21 03:03:44;;;;;;;0.52;0.20;;;;;;;6.99;35.00;99786.66;5122700;27;20066;-69
2023/04/21 03:06:13;;;;;;;0.25;0.20;;;;;;;7.00;34.89;99785.59;5124102;27;20118;-68
2023/04/21 03:08:39;;;;;;;0.20;0.20;;;;;;;7.10;34.67;99785.75;5125052;27;20170;-69
2023/04/21 03:11:05;;;;;;;0.20;0.20;;;;;;;7.15;34.72;99788.50;5125086;27;20054;-68
2023/04/21 03:13:31;;;;;;;0.30;0.30;;;;;;;7.18;34.64;99789.91;5126779;27;20108;-69
2023/04/21 03:15:59;;;;;;;0.10;0.10;;;;;;;7.22;34.48;99797.31;5108776;27;20051;-68
2023/04/21 03:18:25;;;;;;;0.38;0.20;;;;;;;7.27;34.25;99791.13;5124679;27;20425;-68
2023/04/21 03:20:52;;;;;;;0.20;0.20;;;;;;;7.23;34.24;99789.97;5124658;27;20437;-68
2023/04/21 03:23:19;;;;;;;0.20;0.20;;;;;;;7.30;34.20;99797.94;5124689;27;20058;-69
2023/04/21 03:25:45;;;;;;;1.27;0.35;;;;;;;7.36;34.16;99807.81;5108050;27;20049;-69
2023/04/21 03:28:12;;;;;;;0.20;0.20;;;;;;;7.43;33.80;99808.44;5123769;27;20513;-68
2023/04/21 03:30:38;;;;;;;0.20;0.20;;;;;;;7.53;33.75;99807.75;5124631;27;20084;-69
2023/04/21 03:33:05;;;;;;;0.20;0.20;;;;;;;7.46;33.45;99782.63;5125893;27;20050;-69
2023/04/21 03:35:33;;;;;;;0.10;0.10;;;;;;;7.61;33.26;99804.59;5145261;27;20223;-69
2023/04/21 03:37:59;;;;;;;0.20;0.20;;;;;;;7.63;33.36;99798.88;5142930;27;20054;-69
2023/04/21 03:40:27;;;;;;;0.20;0.20;;;;;;;7.66;33.35;99806.53;5146593;27;20053;-69
2023/04/21 03:42:53;;;;;;;;;;;;;;;7.71;33.15;99806.59;5131945;27;20096;-69
2023/04/21 03:45:21;;;;;;;0.20;0.20;;;;;;;7.70;33.12;99799.50;5147024;27;19927;-69
2023/04/21 03:47:48;;;;;;;0.20;0.20;;;;;;;7.68;33.13;99807.09;5147715;27;20088;-69
2023/04/21 03:50:14;;;;;;;0.20;0.20;;;;;;;7.73;33.13;99811.78;5140985;27;20050;-69
2023/04/21 03:52:40;;;;;;;0.20;0.20;;;;;;;7.77;33.16;99800.13;5127973;27;20455;-69
2023/04/21 03:55:10;;;;;;;0.20;0.20;;;;;;;7.85;33.09;99807.00;5124382;27;20040;-70
2023/04/21 03:57:39;;;;;;;0.20;0.20;;;;;;;7.90;33.12;99803.50;5088899;27;20051;-69
2023/04/21 04:00:08;;;;;;;0.20;0.20;;;;;;;8.01;32.74;99808.00;5087614;28;20448;-69
2023/04/21 04:02:39;;;;;;;0.20;0.20;;;;;;;8.08;33.06;99799.59;5127064;27;20047;-69
2023/04/21 04:05:07;;;;;;;0.20;0.20;;;;;;;8.09;32.97;99801.25;5128157;27;20574;-69
2023/04/21 04:07:34;;;;;;;0.20;0.20;;;;;;;8.17;32.71;99797.25;5126096;27;20043;-69
2023/04/21 04:10:00;;;;;;;0.25;0.25;;;;;;;8.23;32.56;99791.56;5125205;28;20078;-69
2023/04/21 04:12:26;;;;;;;0.20;0.20;;;;;;;8.30;32.58;99793.25;5107207;28;20047;-69
2023/04/21 04:14:54;;;;;;;0.32;0.32;;;;;;;8.30;32.53;99785.91;5124829;27;20043;-69
2023/04/21 04:17:20;;;;;;;0.20;0.20;;;;;;;8.36;32.52;99790.31;5125197;27;20043;-69
2023/04/21 04:19:46;;;;;;;0.20;0.20;;;;;;;8.45;32.21;99789.84;5130070;27;20115;-68
2023/04/21 04:22:13;;;;;;;0.20;0.20;;;;;;;8.50;32.19;99789.91;5127352;27;20104;-69
2023/04/21 04:24:39;;;;;;;0.20;0.20;;;;;;;8.56;32.26;99788.03;5127030;27;20054;-69
2023/04/21 04:27:05;;;;;;;0.30;0.30;;;;;;;8.68;32.15;99785.94;5129641;27;20104;-69
2023/04/21 04:29:31;;;;;;;0.32;0.20;;;;;;;8.77;32.00;99780.81;5128578;27;20543;-68
2023/04/21 04:32:02;;;;;;;0.20;0.20;;;;;;;8.83;31.94;99782.47;5129510;27;20091;-69
2023/04/21 04:34:29;;;;;;;0.20;0.20;;;;;;;8.90;31.75;99782.25;5127752;27;20035;-68
2023/04/21 04:36:56;;;;;;;0.32;0.32;;;;;;;8.94;31.74;99789.66;5129391;27;20142;-69
2023/04/21 04:39:22;;;;;;;0.30;0.30;;;;;;;9.00;31.55;99781.47;5129037;27;20039;-69
2023/04/21 04:41:48;;;;;;;0.20;0.20;;;;;;;9.05;31.68;99787.78;5128163;27;20051;-69
2023/04/21 04:44:16;;;;;;;0.20;0.20;;;;;;;9.09;31.44;99782.63;5128749;27;20085;-69
2023/04/21 04:46:42;;;;;;;0.20;0.20;;;;;;;9.16;31.30;99785.94;5128829;27;20047;-69
2023/04/21 04:49:10;;;;;;;0.20;0.20;;;;;;;9.05;31.02;99768.69;5132571;27;20088;-69
2023/04/21 04:51:36;;;;;;;0.20;0.20;;;;;;;9.23;31.06;99777.50;5137427;27;20043;-69
2023/04/21 04:54:02;;;;;;;0.45;0.30;;;;;;;9.32;30.88;99786.00;5129845;27;20064;-69
2023/04/21 04:56:29;;;;;;;0.20;0.20;;;;;;;9.40;30.95;99780.03;5129795;27;20057;-69
2023/04/21 04:58:55;;;;;;;0.30;0.30;;;;;;;9.48;31.09;99778.69;5127644;27;20057;-69
2023/04/21 05:01:28;;;;;;;0.30;0.30;;;;;;;9.51;30.88;99781.69;5129224;27;20039;-69
2023/04/21 05:03:54;;;;;;;0.30;0.30;;;;;;;9.58;31.00;99783.38;5131623;27;20089;-69
2023/04/21 05:06:22;;;;;;;0.22;0.22;;;;;;;9.64;30.97;99782.28;5111622;27;20518;-69
2023/04/21 05:08:47;;;;;;;;;;;;;;;9.71;30.69;99782.84;5127213;27;20051;-69
2023/04/21 05:11:14;;;;;;;0.25;0.25;;;;;;;9.79;30.60;99773.31;5132262;27;19977;-69
2023/04/21 05:13:40;;;;;;;0.45;0.30;;;;;;;9.89;30.26;99776.03;5129835;27;20518;-69
2023/04/21 05:16:08;;;;;;;0.22;0.22;;;;;;;9.98;29.84;99768.13;5126518;27;20054;-69
2023/04/21 05:18:35;;;;;;;0.20;0.20;;;;;;;10.03;29.94;99765.44;5125748;27;20047;-69
2023/04/21 05:21:01;;;;;;;0.20;0.20;;;;;;;10.13;29.77;99752.84;5126777;27;20081;-69
2023/04/21 05:23:28;;;;;;;0.30;0.30;;;;;;;10.22;29.73;99762.16;5128200;27;20073;-69
2023/04/21 05:25:54;;;;;;;0.20;0.20;;;;;;;10.26;29.55;99748.78;5128163;27;20061;-70
2023/04/21 05:28:21;;;;;;;0.55;0.20;;;;;;;10.34;29.17;99751.78;5128622;27;20046;-70
2023/04/21 05:30:48;;;;;;;0.20;0.20;;;;;;;10.39;29.22;99750.94;5135478;27;20034;-69
2023/04/21 05:33:17;;;;;;;0.20;0.20;;;;;;;10.49;29.03;99756.41;5135071;27;20425;-69
2023/04/21 05:35:43;;;;;;;0.20;0.20;;;;;;;10.57;28.75;99756.97;5118927;27;20051;-69
2023/04/21 05:38:09;;;;;;;0.22;0.22;;;;;;;10.67;28.71;99751.47;5121744;27;20051;-70
2023/04/21 05:40:37;;;;;;;0.75;0.30;;;;;;;10.75;28.55;99756.38;5107894;27;20111;-69
2023/04/21 05:43:03;;;;;;;0.20;0.20;;;;;;;10.85;28.52;99760.16;5134837;27;20513;-70
2023/04/21 05:45:29;;;;;;;0.20;0.20;;;;;;;10.91;28.37;99765.34;5135270;27;20038;-70
2023/04/21 05:47:55;;;;;;;0.30;0.30;;;;;;;10.98;28.10;99759.59;5131581;27;20061;-69
2023/04/21 05:50:23;;;;;;;0.20;0.20;;;;;;;10.99;28.10;99755.75;5137866;27;20058;-69
2023/04/21 05:52:49;;;;;;;0.20;0.20;;;;;;;11.06;27.88;99750.81;5148920;27;20043;-69
2023/04/21 05:55:15;;;;;;;0.20;0.20;;;;;;;11.25;27.47;99760.34;5145456;27;20417;-69
2023/04/21 05:57:43;;;;;;;0.20;0.20;;;;;;;11.47;27.47;99752.56;5148208;27;20402;-69
2023/04/21 06:00:10;;;;;;;0.20;0.20;;;;;;;11.73;27.23;99751.59;5148145;27;20055;-69
2023/04/21 06:02:37;;;;;;;0.30;0.30;;;;;;;11.98;26.93;99742.38;5147300;27;20074;-69
2023/04/21 06:05:03;;;;;;;0.30;0.30;;;;;;;12.19;26.72;99736.78;5145500;27;20042;-70
2023/04/21 06:07:30;;;;;;;0.20;0.20;;;;;;;12.36;26.41;99736.31;5139787;27;20050;-69
2023/04/21 06:09:56;;;;;;;0.20;0.20;;;;;;;12.47;26.20;99740.63;5127944;27;20486;-69
2023/04/21 06:12:23;;;;;;;0.30;0.30;;;;;;;12.61;26.18;99740.75;5131448;27;20071;-69
2023/04/21 06:14:50;;;;;;;0.30;0.30;;;;;;;12.69;26.20;99731.06;5136172;27;20063;-70
2023/04/21 06:17:17;;;;;;;0.25;0.25;;;;;;;12.72;25.96;99722.28;5136502;27;20074;-70
2023/04/21 06:19:44;;;;;;;0.38;0.30;;;;;;;12.78;26.13;99733.97;5128896;27;20099;-70
2023/04/21 06:22:10;;;;;;;0.30;0.30;;;;;;;12.93;25.92;99733.00;5128479;27;20055;-69
2023/04/21 06:24:36;;;;;;;0.20;0.20;;;;;;;13.05;25.77;99746.31;5129173;27;20062;-69
2023/04/21 06:27:02;;;;;;;0.20;0.20;;;;;;;13.19;25.87;99738.19;5131372;27;20564;-70
2023/04/21 06:29:28;;;;;;;0.40;0.30;;;;;;;13.27;25.87;99742.22;5128693;27;20039;-70
2023/04/21 06:31:56;;;;;;;0.20;0.20;;;;;;;13.33;25.65;99738.28;5124704;27;20066;-69
2023/04/21 06:34:22;;;;;;;;;;;;;;;13.41;25.47;99745.84;5148452;27;20411;-70
2023/04/21 06:36:48;;;;;;;0.30;0.30;;;;;;;13.53;25.38;99725.41;5147497;27;19923;-69
2023/04/21 06:39:14;;;;;;;0.28;0.28;;;;;;;13.62;25.18;99734.63;5148600;27;20412;-70
2023/04/21 06:41:40;;;;;;;0.30;0.30;;;;;;;13.76;25.06;99729.19;5136687;27;20078;-70
2023/04/21 06:44:06;;;;;;;0.65;0.40;;;;;;;13.93;24.87;99722.34;5109362;27;20050;-69
2023/04/21 06:46:33;;;;;;;0.30;0.30;;;;;;;14.01;24.62;99722.47;5127001;27;20057;-70
2023/04/21 06:49:00;;;;;;;0.20;0.20;;;;;;;14.22;24.55;99716.66;5127822;27;20146;-70
2023/04/21 06:51:26;;;;;;;;;;;;;;;14.37;24.21;99721.06;5127629;27;20522;-70
2023/04/21 06:53:52;;;;;;;0.20;0.20;;;;;;;14.39;23.96;99713.31;5145643;27;20406;-70
2023/04/21 06:56:18;;;;;;;0.20;0.20;;;;;;;14.48;23.96;99718.13;5141095;27;20051;-69
2023/04/21 06:58:45;;;;;;;0.20;0.20;;;;;;;14.46;23.95;99704.69;5127130;27;20358;-70
2023/04/21 07:01:12;;;;;;;0.30;0.30;;;;;;;14.55;23.96;99710.28;5130620;27;20047;-70
2023/04/21 07:03:38;;;;;;;0.30;0.30;;;;;;;14.56;23.82;99712.75;5129082;27;20096;-69
2023/04/21 07:06:06;;;;;;;0.20;0.20;;;;;;;14.59;23.76;99709.38;5128853;27;20051;-69
2023/04/21 07:08:32;;;;;;;0.25;0.25;;;;;;;14.66;23.58;99708.16;5128630;27;20385;-69
2023/04/21 07:10:58;;;;;;;0.20;0.20;;;;;;;14.69;23.34;99711.13;5126901;27;20142;-69
2023/04/21 07:13:24;;;;;;;0.20;0.20;;;;;;;14.75;23.04;99700.88;5137734;27;20086;-68
2023/04/21 07:15:51;;;;;;;0.30;0.30;;;;;;;15.00;22.90;99709.75;5142579;27;20042;-69
2023/04/21 07:18:17;;;;;;;0.30;0.30;;;;;;;15.22;22.83;99706.25;5150410;27;20089;-69
2023/04/21 07:20:43;;;;;;;0.30;0.30;;;;;;;15.44;22.68;99705.47;5148284;27;20300;-69
2023/04/21 07:23:11;;;;;;;0.30;0.30;;;;;;;15.58;22.39;99699.94;5147368;27;20047;-69
2023/04/21 07:25:37;;;;;;;0.20;0.20;;;;;;;15.62;22.40;99697.38;5148960;27;20045;-70
2023/04/21 07:28:04;;;;;;;0.20;0.20;;;;;;;15.66;21.90;99698.38;5128073;27;20544;-70
2023/04/21 07:30:30;;;;;;;0.82;0.30;;;;;;;15.78;21.87;99695.06;5141495;27;20047;-69
2023/04/21 07:32:57;;;;;;;0.30;0.30;;;;;;;15.95;21.88;99697.19;5145778;27;20090;-70
2023/04/21 07:35:23;;;;;;;0.30;0.30;;;;;;;16.02;21.84;99683.75;5146061;27;20634;-69
2023/04/21 07:37:50;;;;;;;0.30;0.30;;;;;;;15.91;21.83;99684.31;5146244;27;20051;-69
2023/04/21 07:40:17;;;;;;;0.30;0.30;;;;;;;15.78;21.49;99689.56;5148137;27;20046;-69
2023/04/21 07:42:43;;;;;;;0.30;0.30;;;;;;;15.74;21.56;99677.53;5141709;27;20051;-69
2023/04/21 07:45:10;;;;;;;0.30;0.30;;;;;;;15.72;21.26;99686.09;5144495;27;20082;-69
2023/04/21 07:47:37;;;;;;;0.30;0.30;;;;;;;15.71;21.38;99670.69;5145440;27;20484;-69
2023/04/21 07:50:04;;;;;;;0.30;0.30;;;;;;;15.80;21.41;99680.97;5144898;27;20087;-69
2023/04/21 07:52:32;;;;;;;0.30;0.30;;;;;;;15.91;21.22;99671.34;5149638;27;20051;-69
2023/04/21 07:54:58;;;;;;;0.30;0.30;;;;;;;16.29;21.11;99659.06;5130996;27;20140;-69
2023/04/21 07:57:25;;;;;;;0.28;0.28;;;;;;;16.54;20.84;99660.31;5148635;27;20046;-69
2023/04/21 07:59:52;;;;;;;0.30;0.30;;;;;;;16.78;20.30;99664.63;5150518;27;20471;-69
2023/04/21 08:02:18;;;;;;;0.30;0.30;;;;;;;17.14;19.78;99660.84;5147967;27;20043;-70
2023/04/21 08:04:44;;;;;;;0.30;0.30;;;;;;;17.58;19.74;99652.59;5148486;27;20054;-71
2023/04/21 08:07:12;;;;;;;0.30;0.30;;;;;;;17.85;19.58;99652.56;5147115;27;20043;-69
2023/04/21 08:09:38;;;;;;;;;;;;;;;18.31;19.19;99649.41;5146754;27;20528;-69
2023/04/21 08:12:04;;;;;;;0.30;0.30;;;;;;;18.56;18.87;99651.25;5141118;27;19923;-69
2023/04/21 08:14:31;;;;;;;0.30;0.30;;;;;;;18.79;18.41;99650.16;5146944;27;20051;-69
2023/04/21 08:16:58;;;;;;;0.75;0.40;;;;;;;18.76;18.22;99651.66;5150787;27;20057;-70
2023/04/21 08:19:24;;;;;;;0.35;0.35;;;;;;;19.15;18.18;99648.03;5132375;27;20070;-69
2023/04/21 08:21:51;;;;;;;0.40;0.40;;;;;;;19.19;17.77;99640.66;5147428;27;20050;-69
2023/04/21 08:24:17;;;;;;;0.40;0.40;;;;;;;19.62;17.74;99642.28;5127526;27;20050;-69
2023/04/21 08:26:43;;;;;;;0.32;0.32;;;;;;;19.65;17.89;99644.34;5126317;27;20087;-69
2023/04/21 08:29:12;;;;;;;0.40;0.40;;;;;;;19.86;17.89;99640.75;5146699;27;20051;-69
2023/04/21 08:31:39;;;;;;;0.40;0.40;;;;;;;20.27;17.37;99650.13;5148970;27;20394;-69
2023/04/21 08:34:06;;;;;;;0.40;0.40;;;;;;;20.09;17.87;99638.44;5143628;27;20095;-69
2023/04/21 08:36:32;;;;;;;0.40;0.40;;;;;;;20.12;17.87;99634.97;5144967;27;20047;-69
2023/04/21 08:38:59;;;;;;;0.40;0.40;;;;;;;20.15;17.79;99633.47;5142430;27;20052;-69
2023/04/21 08:41:26;;;;;;;0.50;0.50;;;;;;;20.17;17.77;99628.38;5140600;27;20544;-69
2023/04/21 08:43:52;;;;;;;0.50;0.50;;;;;;;20.17;17.65;99624.78;5148290;27;20051;-69
2023/04/21 08:46:18;;;;;;;0.50;0.50;;;;;;;20.40;17.66;99622.38;5148349;27;20078;-69
2023/04/21 08:48:46;;;;;;;0.50;0.50;;;;;;;20.65;17.94;99622.41;5142589;27;20433;-69
2023/04/21 08:51:21;;;;;;;0.60;0.60;;;;;;;20.92;17.44;99609.78;5151027;27;20421;-69
2023/04/21 08:53:48;;;;;;;0.60;0.60;;;;;;;21.35;16.92;99615.03;5149142;27;20548;-69
2023/04/21 08:56:14;;;;;;;0.60;0.60;;;;;;;21.78;16.32;99607.94;5148918;27;20047;-69
2023/04/21 08:58:40;;;;;;;0.60;0.60;;;;;;;22.26;16.48;99617.50;5149830;27;20137;-69
2023/04/21 09:01:06;;;;;;;0.60;0.60;;;;;;;22.32;16.42;99604.91;5152036;27;20053;-69
2023/04/21 09:03:33;;;;;;;0.60;0.60;;;;;;;22.28;16.52;99593.69;5149246;27;20398;-69
2023/04/21 09:06:01;;;;;;;0.60;0.60;;;;;;;23.03;16.33;99598.66;5110410;27;20043;-70
2023/04/21 09:08:29;;;;;;;0.60;0.60;;;;;;;23.56;15.95;99591.78;5149661;27;20043;-68
2023/04/21 09:10:57;;;;;;;0.60;0.60;;;;;;;23.51;15.72;99584.50;5150809;27;20498;-69
2023/04/21 09:13:29;;;;;;;0.60;0.60;;;;;;;23.41;15.60;99587.88;5150394;27;20062;-69
2023/04/21 09:15:55;;;;;;;0.70;0.70;;;;;;;23.50;16.05;99589.31;5148787;27;20053;-69
2023/04/21 09:18:24;;;;;;;0.80;0.80;;;;;;;23.80;15.65;99576.69;5147514;27;20509;-69
2023/04/21 09:20:51;;;;;;;0.80;0.80;;;;;;;23.63;15.77;99589.13;5148817;27;20054;-69
2023/04/21 09:23:20;;;;;;;0.80;0.80;;;;;;;23.77;15.34;99569.06;5146180;27;20821;-69
2023/04/21 09:25:46;;;;;;;0.80;0.80;;;;;;;23.52;15.64;99580.53;5148052;27;20424;-69
2023/04/21 09:28:14;;;;;;;0.70;0.70;;;;;;;23.36;15.96;99573.06;5147777;27;20454;-69
2023/04/21 09:30:41;;;;;;;0.90;0.90;;;;;;;23.29;15.88;99572.94;5147444;27;20046;-69
2023/04/21 09:33:07;;;;;;;;;;;;;;;23.42;16.49;99568.00;5150004;27;20772;-69
2023/04/21 09:35:35;;;;;;;0.60;0.60;;;;;;;23.60;16.27;99561.97;5148176;27;19944;-69
2023/04/21 09:38:02;;;;;;;0.90;0.90;;;;;;;23.72;15.79;99563.78;5146030;27;20050;-70
2023/04/21 09:40:30;;;;;;;1.08;0.98;;;;;;;24.52;15.53;99562.38;5148075;27;20069;-69
2023/04/21 09:42:56;;;;;;;0.95;0.90;;;;;;;25.16;15.10;99567.28;5150403;27;20061;-69
2023/04/21 09:45:26;;;;;;;0.88;0.88;;;;;;;25.58;14.89;99546.59;5146362;27;20038;-69
2023/04/21 09:47:55;;;;;;;0.90;0.90;;;;;;;25.28;15.14;99546.63;5146863;27;20042;-70
2023/04/21 09:50:22;;;;;;;1.00;1.00;;;;;;;25.59;14.86;99541.81;5143307;27;20066;-70
2023/04/21 09:52:50;;;;;;;0.90;0.90;;;;;;;25.86;14.34;99545.28;5147400;27;20050;-68
2023/04/21 09:55:18;;;;;;;1.00;1.00;;;;;;;25.93;14.29;99533.34;5147584;27;20051;-69
2023/04/21 09:57:49;;;;;;;1.00;1.00;;;;;;;26.12;13.80;99549.13;5148105;27;20057;-69
2023/04/21 10:00:17;;;;;;;1.00;1.00;;;;;;;26.32;13.80;99546.09;5147589;27;20043;-69
2023/04/21 10:02:47;;;;;;;1.00;1.00;;;;;;;25.99;13.83;99539.41;5148466;27;20039;-69
2023/04/21 10:05:13;;;;;;;1.00;1.00;;;;;;;26.11;13.98;99539.09;5148251;27;20038;-69
2023/04/21 10:07:39;;;;;;;1.00;1.00;;;;;;;26.25;13.83;99534.84;5150219;27;20042;-69
2023/04/21 10:10:11;;;;;;;1.10;1.10;;;;;;;26.96;13.64;99528.09;5130968;27;20074;-68
2023/04/21 10:12:38;;;;;;;1.20;1.10;;;;;;;27.22;13.04;99520.56;5141831;27;20436;-70
2023/04/21 10:15:33;;;;;;;1.10;1.10;;;;;;;26.80;13.22;99534.00;5122234;27;20054;-70
2023/04/21 10:18:16;;;;;;;1.10;1.10;;;;;;;26.99;12.95;99518.88;5148163;27;20050;-69
2023/04/21 10:20:53;;;;;;;0.50;0.50;;;;;;;25.26;14.01;99524.63;5147693;27;20054;-70
2023/04/21 10:23:27;;;;;;;1.10;1.10;;;;;;;23.01;16.07;99517.34;5146579;27;20050;-70
2023/04/21 10:25:53;;;;;;;1.20;1.10;;;;;;;23.88;15.50;99517.03;5147243;27;20091;-69
2023/04/21 10:28:19;;;;;;;1.10;1.10;;;;;;;25.35;14.43;99502.75;5146331;27;20062;-69
2023/04/21 10:30:47;;;;;;;1.27;1.10;;;;;;;26.81;13.34;99487.94;5150590;27;20150;-69
2023/04/21 10:33:17;;;;;;;1.20;1.20;;;;;;;27.35;12.96;99500.56;5148154;27;20043;-69
2023/04/21 10:36:10;;;;;;;1.20;1.20;;;;;;;27.20;12.98;99496.91;5147852;27;20042;-70
2023/04/21 10:38:40;;;;;;;1.30;1.20;;;;;;;27.26;13.03;99495.34;5093605;27;20138;-70
2023/04/21 10:41:26;;;;;;;1.30;1.20;;;;;;;27.70;12.63;99499.06;5146889;27;20089;-70
2023/04/21 10:43:52;;;;;;;1.30;1.20;;;;;;;28.30;12.45;99494.66;5147695;27;20085;-70
2023/04/21 10:46:33;;;;;;;1.30;1.20;;;;;;;29.30;11.87;99485.50;5146755;27;20465;-70
2023/04/21 10:49:07;;;;;;;1.30;1.20;;;;;;;29.51;11.82;99481.78;5145595;27;20133;-70
2023/04/21 10:52:02;;;;;;;1.30;1.20;;;;;;;29.25;11.48;99483.91;5147723;27;20047;-68
2023/04/21 10:54:40;;;;;;;1.30;1.20;;;;;;;28.66;11.98;99479.72;5144569;27;20405;-70
2023/04/21 10:57:08;;;;;;;1.30;1.20;;;;;;;28.08;12.45;99488.22;5145466;27;20058;-70
2023/04/21 10:59:35;;;;;;;0.50;0.50;;;;;;;26.74;12.70;99487.88;5144976;27;20536;-69
2023/04/21 11:02:03;;;;;;;0.50;0.50;;;;;;;24.12;14.46;99481.56;5144112;27;20039;-70
2023/04/21 11:04:30;;;;;;;1.30;1.20;;;;;;;23.35;15.43;99484.22;5147660;27;20046;-70
2023/04/21 11:07:06;;;;;;;1.30;1.20;;;;;;;24.95;14.33;99481.13;5147903;27;20429;-69
2023/04/21 11:09:33;;;;;;;1.40;1.30;;;;;;;26.93;12.85;99486.81;5147423;27;20041;-69
2023/04/21 11:12:01;;;;;;;1.40;1.30;;;;;;;28.14;12.35;99481.00;5146135;27;20046;-69
2023/04/21 11:14:27;;;;;;;1.40;1.30;;;;;;;29.13;11.73;99478.75;5126476;27;20067;-68
2023/04/21 11:16:54;;;;;;;1.40;1.30;;;;;;;29.47;11.18;99480.97;5145941;27;20046;-69
2023/04/21 11:19:23;;;;;;;1.50;1.40;;;;;;;29.99;10.85;99468.91;5147022;27;20057;-69
2023/04/21 11:21:51;;;;;;;1.50;1.40;;;;;;;30.43;10.24;99468.50;5145822;27;20548;-69
2023/04/21 11:24:19;;;;;;;1.50;1.40;;;;;;;30.78;10.13;99457.28;5146155;27;20047;-68
2023/04/21 11:26:45;;;;;;;0.70;0.70;;;;;;;30.25;10.46;99448.97;5128382;27;21692;-68
2023/04/21 11:29:11;;;;;;;0.80;0.80;;;;;;;28.20;11.73;99463.75;5147406;27;20455;-69
2023/04/21 11:31:38;;;;;;;1.40;1.30;;;;;;;27.80;11.97;99458.16;5143702;27;20145;-68
2023/04/21 11:34:05;;;;;;;0.50;0.50;;;;;;;28.16;11.53;99455.28;5142915;27;20047;-68
2023/04/21 11:36:34;;;;;;;1.27;1.20;;;;;;;26.51;12.72;99446.13;5145006;27;20054;-68
2023/04/21 11:39:06;;;;;;;1.40;1.30;;;;;;;27.40;12.55;99450.47;5146793;27;20646;-69
2023/04/21 11:41:33;;;;;;;1.50;1.40;;;;;;;28.81;11.37;99435.50;5144486;27;20042;-68